Impacts METAR Board
IDs:

KCLL - College Station/East, TX, US

Updated at: 0400 UTC 18 Jan 2022
Potential Impact None Slight Moderate High
Time 17/16Z 17/17Z 17/18Z 17/19Z 17/20Z 17/21Z 17/22Z 17/23Z 18/00Z 18/01Z 18/02Z 18/03Z 18/04Z
Temp53 59 63 65 67 67 68 67 60 57 54 53 51
Dewpt31 29 26 26 25 25 25 26 28 29 29 28 26
Altim30.20 30.21 30.18 30.14 30.11 30.09 30.08 30.08 30.07 30.07 30.08 30.09 30.09
VIS10 10 10 10 10 10 10 10 10 10 10 10 10
CIG-- -- -- -- -- -- -- -- -- -- -- -- --
CoverCLRCLRCLRCLRCLRCLRCLRCLRCLRCLRCLRCLRCLR
FltCatVFRVFRVFRVFRVFRVFRVFRVFRVFRVFRVFRVFRVFR
WX--------------------------
WDir10001501501700160170140130150150150
WSpd4 4 6 6 8 0 9 6 5 5 4 4 4
WGst-- -- -- -- 20 -- -- -- -- -- -- -- --
Raw hourly METARs
KCLL 171553Z 10004KT 10SM CLR 12/M01 A3020 RMK AO2 SLP227 T01171006
KCLL 171653Z VRB04KT 10SM CLR 15/M02 A3021 RMK AO2 SLP227 T01501017
KCLL 171753Z 15006KT 10SM CLR 17/M03 A3018 RMK AO2 SLP219 T01721033 10172 20000 58004
KCLL 171853Z 15006KT 10SM CLR 18/M03 A3014 RMK AO2 SLP204 T01831033
KCLL 171953Z 17008G20KT 10SM CLR 19/M04 A3011 RMK AO2 SLP195 T01941039
KCLL 172053Z 00000KT 10SM CLR 19/M04 A3009 RMK AO2 SLP188 T01941039 56030
KCLL 172153Z 16009KT 10SM CLR 20/M04 A3008 RMK AO2 SLP185 T02001039
KCLL 172253Z 17006KT 10SM CLR 19/M03 A3008 RMK AO2 SLP183 T01941033
KCLL 172353Z 14005KT 10SM CLR 16/M02 A3007 RMK AO2 SLP181 T01561022 10206 20156 58009
KCLL 180053Z 13005KT 10SM CLR 14/M02 A3007 RMK AO2 SLP183 T01391017
KCLL 180153Z 15004KT 10SM CLR 12/M02 A3008 RMK AO2 SLP185 T01221017
KCLL 180253Z AUTO 15004KT 10SM CLR 12/M02 A3009 RMK AO2 SLP186 T01171022 51006
KCLL 180353Z AUTO 15004KT 10SM CLR 11/M03 A3009 RMK AO2 SLP187 T01061033